REC weather

Guararapes - Gilberto Freyre International Airport
Recife, Pernambuco, Brazil

Public forecast

Using degrees Celsius for public forecast. Weather courtesy of forecast.io.

Current aviation weather report (METAR) for Guararapes - Gilberto Freyre International Airport

Retrieved 2019/12/14 12:00 UTC (44 minutes ago):

SBRF 141200Z 12008KT 9999 FEW025 BKN070 30/22 Q1014

Aviation forecast (TAF) for Guararapes - Gilberto Freyre International Airport

Retrieved 2019/12/14 12:00 UTC (44 minutes ago):

TAF SBRF 141000Z 1412/1512 13010KT 9000 SCT025 TX30/1414Z TN26/1506Z RMK PEU